KDLF

Laughlin AFB Airport

Del Rio, Texas, USA
METAR KDLF 240155Z 10011KT 10SM FEW070 BKN230 30/18 A2993 RMK AO2A SLP123 T02960180
Observed Flight Rules
May-24 @ 01:55 UTC (9 minutes ago) Visual Flight Rules
Wind Visibility Clouds
100° at 11 knots 10 miles
  • Few at 7,000' AGL
  • Broken at 23,000' AGL
Temperatures Readings
Current 30°C / 86°F
Dewpoint 18°C / 64°F
Humidity 49%
Altimeter 29.93" Hg
Pressure 1012.3 hPa
Elevation 330
METAR KDLF 240155Z 10011KT 10SM FEW070 BKN230 30/18 A2993 RMK AO2A SLP123 T02960180
Observed Flight Rules
May-24 @ 01:55 UTC
(9 minutes ago)
VFR
Wind Visibility
100° at 11 knots 10 miles
Clouds
  • Few at 7,000' AGL
  • Broken at 23,000' AGL
Temperature Dewpoint
30°C / 86°F 18°C / 64°F
Humidity Altimeter Pressure
49% 29.93" Hg 1012.3 hPa